createdAt,value
2022-10-30T00:01:37.142Z,25.45
2022-10-30T00:04:05.670Z,27.58
2022-10-30T00:06:35.351Z,19.98
2022-10-30T00:09:03.690Z,23.25
2022-10-30T00:11:32.009Z,24.48
2022-10-30T00:14:00.329Z,23.20
2022-10-30T00:16:28.639Z,23.50
2022-10-30T00:18:56.969Z,25.63
2022-10-30T00:21:25.308Z,22.38
2022-10-30T00:23:55.358Z,21.00
2022-10-30T00:26:25.042Z,28.52
2022-10-30T00:28:53.587Z,20.35
2022-10-30T00:31:22.211Z,17.58
2022-10-30T00:33:51.282Z,19.23
2022-10-30T00:36:19.847Z,22.48
2022-10-30T00:38:48.178Z,20.08
2022-10-30T00:41:18.411Z,19.85
2022-10-30T00:43:46.923Z,19.60
2022-10-30T00:46:18.147Z,19.20
2022-10-30T00:48:47.922Z,19.92
2022-10-30T00:51:16.537Z,18.02
2022-10-30T00:53:47.900Z,24.15
2022-10-30T00:56:20.106Z,18.52
2022-10-30T00:58:49.699Z,18.67
2022-10-30T01:01:19.431Z,21.10
2022-10-30T01:03:48.709Z,19.20
2022-10-30T01:06:17.733Z,21.77
2022-10-30T01:08:47.131Z,21.67
2022-10-30T01:11:15.711Z,18.42
2022-10-30T01:13:47.519Z,17.10
2022-10-30T01:16:29.408Z,18.33
2022-10-30T01:19:01.100Z,19.58
2022-10-30T01:21:38.642Z,29.60
2022-10-30T01:24:16.507Z,20.67
2022-10-30T01:26:49.363Z,21.45
2022-10-30T01:29:25.484Z,20.67
2022-10-30T01:32:00.700Z,16.98
2022-10-30T01:34:35.360Z,18.02
2022-10-30T01:37:05.292Z,19.92
2022-10-30T01:39:35.778Z,18.05
2022-10-30T01:42:10.279Z,20.35
2022-10-30T01:44:39.974Z,17.15
2022-10-30T01:47:16.587Z,18.20
2022-10-30T01:50:05.986Z,21.52
2022-10-30T01:52:39.609Z,21.35
2022-10-30T01:55:13.202Z,16.27
2022-10-30T01:57:43.821Z,16.77
2022-10-30T02:00:17.049Z,16.58
2022-10-30T02:02:50.258Z,16.65
2022-10-30T02:05:26.855Z,22.95
2022-10-30T02:07:56.900Z,18.27
2022-10-30T02:10:27.661Z,25.30
2022-10-30T02:12:56.223Z,17.73
2022-10-30T02:15:27.422Z,23.25
2022-10-30T02:17:56.867Z,19.35
2022-10-30T02:20:27.504Z,18.20
2022-10-30T02:22:59.039Z,16.35
2022-10-30T02:25:32.658Z,17.75
2022-10-30T02:28:01.000Z,19.65
2022-10-30T02:30:31.991Z,16.73
2022-10-30T02:33:02.720Z,15.82
2022-10-30T02:35:32.927Z,19.50
2022-10-30T02:38:01.558Z,16.95
2022-10-30T02:40:30.117Z,21.85
2022-10-30T02:42:58.637Z,17.00
2022-10-30T02:45:27.063Z,17.73
2022-10-30T02:47:55.734Z,16.55
2022-10-30T02:50:24.395Z,15.88
2022-10-30T02:52:54.935Z,16.10
2022-10-30T02:55:23.869Z,17.48
2022-10-30T02:57:54.060Z,19.50
2022-10-30T03:00:22.639Z,17.80
2022-10-30T03:02:55.841Z,18.42
2022-10-30T03:05:24.274Z,15.60
2022-10-30T03:07:52.728Z,19.70
2022-10-30T03:10:22.432Z,16.95
2022-10-30T03:12:50.746Z,16.70
2022-10-30T03:15:19.615Z,18.73
2022-10-30T03:17:49.929Z,15.15
2022-10-30T03:20:18.533Z,19.83
2022-10-30T03:22:47.248Z,20.20
2022-10-30T03:25:15.639Z,16.10
2022-10-30T03:27:45.320Z,18.73
2022-10-30T03:30:13.898Z,18.13
2022-10-30T03:32:42.214Z,21.98
2022-10-30T03:35:10.956Z,20.33
2022-10-30T03:37:39.307Z,16.73
2022-10-30T03:40:08.260Z,19.65
2022-10-30T03:42:41.058Z,19.98
2022-10-30T03:45:12.222Z,16.02
2022-10-30T03:47:41.466Z,17.95
2022-10-30T03:50:10.989Z,17.65
2022-10-30T03:52:39.308Z,21.00
2022-10-30T03:55:08.204Z,16.02
2022-10-30T03:57:38.404Z,15.93
2022-10-30T04:00:14.888Z,20.77
2022-10-30T04:02:46.352Z,18.67
2022-10-30T04:05:15.609Z,15.88
2022-10-30T04:07:44.375Z,18.30
2022-10-30T04:10:13.131Z,19.20
2022-10-30T04:12:41.551Z,17.38
2022-10-30T04:15:10.593Z,16.17
2022-10-30T04:17:40.463Z,18.50
2022-10-30T04:20:09.577Z,16.60
2022-10-30T04:22:37.933Z,18.60
2022-10-30T04:25:06.562Z,18.70
2022-10-30T04:27:40.722Z,16.85
2022-10-30T04:30:10.087Z,16.75
2022-10-30T04:32:38.701Z,16.63
2022-10-30T04:35:09.287Z,21.27
2022-10-30T04:37:37.617Z,17.48
2022-10-30T04:40:06.732Z,14.60
2022-10-30T04:42:43.087Z,17.92
2022-10-30T04:45:15.151Z,15.10
2022-10-30T04:47:44.994Z,16.98
2022-10-30T04:50:15.530Z,17.95
2022-10-30T04:52:43.943Z,14.85
2022-10-30T04:55:12.855Z,20.08
2022-10-30T04:57:43.917Z,16.88
2022-10-30T05:00:12.835Z,14.63
2022-10-30T05:02:41.313Z,18.88
2022-10-30T05:05:09.915Z,15.63
2022-10-30T05:07:39.645Z,14.52
2022-10-30T05:10:08.689Z,17.13
2022-10-30T05:12:37.075Z,19.35
2022-10-30T05:15:05.938Z,15.48
2022-10-30T05:17:35.997Z,15.48
2022-10-30T05:20:04.754Z,17.20
2022-10-30T05:22:33.556Z,17.92
2022-10-30T05:25:03.224Z,15.52
2022-10-30T05:27:31.567Z,19.58
2022-10-30T05:29:59.906Z,15.65
2022-10-30T05:32:29.135Z,18.33
2022-10-30T05:34:58.259Z,16.42
2022-10-30T05:37:26.830Z,15.50
2022-10-30T05:39:55.145Z,21.30
2022-10-30T05:42:28.698Z,14.85
2022-10-30T05:45:01.682Z,15.38
2022-10-30T05:47:32.732Z,16.45
2022-10-30T05:50:01.075Z,19.05
2022-10-30T05:52:30.133Z,15.35
2022-10-30T05:55:00.368Z,18.50
2022-10-30T05:57:38.188Z,23.42
2022-10-30T06:00:08.046Z,18.98
2022-10-30T06:02:43.951Z,20.42
2022-10-30T06:05:14.766Z,17.92
2022-10-30T06:07:43.119Z,19.92
2022-10-30T06:10:11.450Z,18.00
2022-10-30T06:12:55.571Z,19.08
2022-10-30T06:15:33.332Z,18.33
2022-10-30T06:18:02.637Z,16.35
2022-10-30T06:20:49.330Z,16.63
2022-10-30T06:23:27.661Z,17.08
2022-10-30T06:26:02.142Z,19.10
2022-10-30T06:28:54.453Z,14.63
2022-10-30T06:31:23.014Z,16.30
2022-10-30T06:33:51.395Z,17.30
2022-10-30T06:36:19.863Z,13.93
2022-10-30T06:38:48.850Z,21.45
2022-10-30T06:41:19.940Z,17.52
2022-10-30T06:44:03.675Z,18.85
2022-10-30T06:46:33.945Z,15.80
2022-10-30T06:49:02.680Z,22.17
2022-10-30T06:51:32.703Z,15.95
2022-10-30T06:54:01.916Z,15.90
2022-10-30T06:56:42.587Z,15.23
2022-10-30T06:59:35.149Z,19.02
2022-10-30T07:02:32.897Z,13.73
2022-10-30T07:05:06.536Z,14.63
2022-10-30T07:07:34.987Z,20.15
2022-10-30T07:10:03.651Z,18.85
2022-10-30T07:12:54.405Z,23.10
2022-10-30T07:15:48.671Z,18.52
2022-10-30T07:18:22.228Z,19.45
2022-10-30T07:20:55.270Z,23.98
2022-10-30T07:23:24.161Z,20.60
2022-10-30T07:25:57.279Z,16.25
2022-10-30T07:28:35.008Z,14.65
2022-10-30T07:31:35.181Z,19.95
2022-10-30T07:34:11.269Z,18.15
2022-10-30T07:37:08.777Z,15.35
2022-10-30T07:39:44.156Z,15.38
2022-10-30T07:42:38.694Z,17.65
2022-10-30T07:45:07.541Z,20.05
2022-10-30T07:48:03.417Z,18.30
2022-10-30T07:50:42.364Z,16.85
2022-10-30T07:53:10.965Z,17.90
2022-10-30T07:55:39.298Z,19.15
2022-10-30T07:58:26.291Z,20.90
2022-10-30T08:01:14.408Z,14.80
2022-10-30T08:03:45.487Z,16.90
2022-10-30T08:06:26.251Z,17.25
2022-10-30T08:08:55.640Z,22.42
2022-10-30T08:11:26.954Z,18.60
2022-10-30T08:13:56.162Z,16.52
2022-10-30T08:16:25.378Z,21.42
2022-10-30T08:18:55.369Z,17.42
2022-10-30T08:21:26.386Z,16.65
2022-10-30T08:24:00.661Z,15.40
2022-10-30T08:26:31.711Z,18.23
2022-10-30T08:29:00.313Z,16.88
2022-10-30T08:31:30.620Z,16.08
2022-10-30T08:34:02.887Z,19.38
2022-10-30T08:36:42.740Z,14.27
2022-10-30T08:39:13.849Z,12.77
2022-10-30T08:42:02.764Z,16.00
2022-10-30T08:44:36.904Z,12.50
2022-10-30T08:47:23.916Z,12.15
2022-10-30T08:49:53.651Z,19.52
2022-10-30T08:52:25.549Z,13.70
2022-10-30T08:54:57.282Z,12.85
2022-10-30T08:57:27.980Z,15.80
2022-10-30T08:59:58.343Z,10.38
2022-10-30T09:02:49.952Z,12.63
2022-10-30T09:05:59.277Z,18.23
2022-10-30T09:08:59.362Z,14.25
2022-10-30T09:11:49.826Z,13.63
2022-10-30T09:14:18.627Z,13.68
2022-10-30T09:16:47.036Z,12.70
2022-10-30T09:19:18.940Z,15.13
2022-10-30T09:21:49.422Z,21.17
2022-10-30T09:24:18.192Z,13.93
2022-10-30T09:26:52.426Z,12.50
2022-10-30T09:29:27.947Z,13.93
2022-10-30T09:31:59.182Z,13.15
2022-10-30T09:34:30.757Z,17.02
2022-10-30T09:37:08.284Z,16.52
2022-10-30T09:39:39.105Z,19.45
2022-10-30T09:42:16.932Z,16.08
2022-10-30T09:45:23.366Z,19.30
2022-10-30T09:47:52.545Z,21.20
2022-10-30T09:50:26.374Z,13.38
2022-10-30T09:53:04.872Z,17.60
2022-10-30T09:55:38.714Z,15.55
2022-10-30T09:58:13.440Z,12.85
2022-10-30T10:00:46.716Z,17.30
2022-10-30T10:03:30.431Z,13.05
2022-10-30T10:06:20.143Z,11.48
2022-10-30T10:09:05.215Z,16.95
2022-10-30T10:11:55.504Z,14.57
2022-10-30T10:14:26.173Z,13.95
2022-10-30T10:16:55.608Z,12.90
2022-10-30T10:19:24.631Z,13.90
2022-10-30T10:21:55.408Z,13.75
2022-10-30T10:24:26.724Z,18.38
2022-10-30T10:26:58.230Z,15.68
2022-10-30T10:29:44.521Z,10.75
2022-10-30T10:32:27.604Z,14.15
2022-10-30T10:35:02.319Z,17.33
2022-10-30T10:37:36.811Z,13.65
2022-10-30T10:40:17.475Z,18.60
2022-10-30T10:42:50.349Z,16.23
2022-10-30T10:45:21.514Z,18.27
2022-10-30T10:48:01.694Z,17.05
2022-10-30T10:50:33.448Z,15.40
2022-10-30T10:53:03.429Z,13.00
2022-10-30T10:55:36.280Z,13.63
2022-10-30T10:58:07.807Z,15.95
2022-10-30T11:00:36.205Z,16.63
2022-10-30T11:03:07.010Z,15.52
2022-10-30T11:05:37.485Z,14.68
2022-10-30T11:08:12.171Z,15.70
2022-10-30T11:10:41.906Z,16.45
2022-10-30T11:13:12.953Z,15.25
2022-10-30T11:15:49.787Z,22.15
2022-10-30T11:18:18.157Z,18.17
2022-10-30T11:20:52.837Z,13.73
2022-10-30T11:23:34.680Z,14.15
2022-10-30T11:26:04.796Z,13.73
2022-10-30T11:28:43.042Z,11.88
2022-10-30T11:31:21.567Z,17.20
2022-10-30T11:33:50.109Z,17.10
2022-10-30T11:36:19.517Z,16.85
2022-10-30T11:38:47.831Z,12.35
2022-10-30T11:41:17.546Z,11.38
2022-10-30T11:43:46.030Z,12.68
2022-10-30T11:46:21.244Z,17.38
2022-10-30T11:48:54.563Z,13.05
2022-10-30T11:51:33.201Z,14.88
2022-10-30T11:54:01.935Z,6.70
2022-10-30T11:56:32.286Z,12.10
2022-10-30T11:59:02.716Z,8.73
2022-10-30T12:01:32.052Z,16.50
2022-10-30T12:04:14.874Z,12.50
2022-10-30T12:06:43.334Z,14.52
2022-10-30T12:09:13.272Z,11.60
2022-10-30T12:11:44.300Z,12.95
2022-10-30T12:14:18.484Z,11.02
2022-10-30T12:16:48.220Z,17.33
2022-10-30T12:19:16.868Z,17.10
2022-10-30T12:21:47.011Z,15.68
2022-10-30T12:24:18.007Z,10.52
2022-10-30T12:26:49.519Z,12.38
2022-10-30T12:29:19.672Z,9.93
2022-10-30T12:31:51.118Z,10.93
2022-10-30T12:34:37.158Z,10.50
2022-10-30T12:37:08.459Z,13.32
2022-10-30T12:39:44.792Z,11.73
2022-10-30T12:42:16.435Z,12.55
2022-10-30T12:44:46.738Z,11.25
2022-10-30T12:47:19.667Z,12.40
2022-10-30T12:49:49.548Z,11.88
2022-10-30T12:52:21.049Z,13.13
2022-10-30T12:54:52.628Z,15.68
2022-10-30T12:57:24.276Z,16.98
2022-10-30T13:00:01.676Z,11.30
2022-10-30T13:02:35.139Z,11.98
2022-10-30T13:05:05.882Z,13.32
2022-10-30T13:07:37.644Z,11.40
2022-10-30T13:10:15.075Z,7.93
2022-10-30T13:12:46.075Z,12.88
2022-10-30T13:15:19.797Z,10.63
2022-10-30T13:17:48.177Z,9.70
2022-10-30T13:20:17.704Z,8.68
2022-10-30T13:22:48.984Z,9.63
2022-10-30T13:25:21.434Z,12.15
2022-10-30T13:27:54.261Z,9.80
2022-10-30T13:30:23.250Z,12.07
2022-10-30T13:32:58.993Z,11.18
2022-10-30T13:35:31.971Z,10.60
2022-10-30T13:38:04.164Z,9.70
2022-10-30T13:40:34.446Z,10.95
2022-10-30T13:43:15.484Z,14.68
2022-10-30T13:45:56.429Z,12.57
2022-10-30T13:48:31.818Z,16.40
2022-10-30T13:51:19.395Z,13.68
2022-10-30T13:53:49.863Z,11.88
2022-10-30T13:56:19.188Z,14.20
2022-10-30T13:58:52.313Z,10.55
2022-10-30T14:01:23.903Z,10.75
2022-10-30T14:03:56.902Z,9.63
2022-10-30T14:06:33.500Z,12.15
2022-10-30T14:09:07.954Z,11.15
2022-10-30T14:11:36.287Z,12.60
2022-10-30T14:14:28.100Z,12.30
2022-10-30T14:17:10.341Z,11.60
2022-10-30T14:19:53.563Z,11.43
2022-10-30T14:22:24.965Z,11.63
2022-10-30T14:24:53.320Z,9.45
2022-10-30T14:27:23.520Z,11.60
2022-10-30T14:29:54.134Z,13.52
2022-10-30T14:32:36.663Z,14.35
2022-10-30T14:35:25.562Z,13.90
2022-10-30T14:37:58.166Z,11.57
2022-10-30T14:40:36.026Z,10.35
2022-10-30T14:43:08.463Z,8.93
2022-10-30T14:45:43.468Z,13.25
2022-10-30T14:48:19.059Z,11.10
2022-10-30T14:50:54.773Z,9.63
2022-10-30T14:53:36.459Z,12.32
2022-10-30T14:56:07.587Z,11.80
2022-10-30T14:58:36.919Z,13.35
2022-10-30T15:01:25.643Z,13.30
2022-10-30T15:03:58.914Z,12.10
2022-10-30T15:06:31.287Z,16.58
2022-10-30T15:09:11.291Z,12.52
2022-10-30T15:11:48.133Z,14.77
2022-10-30T15:14:21.572Z,16.02
2022-10-30T15:17:02.538Z,13.90
2022-10-30T15:19:31.476Z,14.38
2022-10-30T15:21:59.828Z,15.25
2022-10-30T15:24:32.356Z,14.43
2022-10-30T15:27:02.132Z,14.10
2022-10-30T15:29:32.167Z,17.27
2022-10-30T15:32:03.122Z,14.88
2022-10-30T15:34:32.982Z,16.92
2022-10-30T15:37:01.364Z,11.88
2022-10-30T15:39:29.674Z,16.27
2022-10-30T15:42:00.058Z,17.65
2022-10-30T15:44:30.132Z,23.83
2022-10-30T15:47:00.601Z,20.58
2022-10-30T15:49:33.749Z,23.85
2022-10-30T15:52:03.042Z,20.70
2022-10-30T15:54:32.547Z,23.48
2022-10-30T15:57:36.948Z,22.05
2022-10-30T15:59:52.871Z,18.40
2022-10-30T16:02:23.091Z,29.38
2022-10-30T16:04:53.031Z,24.15
2022-10-30T16:07:22.773Z,28.10
2022-10-30T16:09:54.911Z,50.25
2022-10-30T16:12:25.578Z,55.75
2022-10-30T16:14:54.321Z,40.63
2022-10-30T16:17:23.098Z,30.20
2022-10-30T16:19:53.751Z,28.15
2022-10-30T16:22:25.422Z,23.70
2022-10-30T16:24:54.180Z,23.10
2022-10-30T16:27:23.938Z,15.43
2022-10-30T16:29:53.026Z,20.40
2022-10-30T16:32:22.861Z,19.77
2022-10-30T16:34:56.142Z,47.60
2022-10-30T16:37:27.571Z,35.78
2022-10-30T16:39:56.522Z,33.70
2022-10-30T16:42:25.586Z,32.08
2022-10-30T16:44:56.155Z,33.45
2022-10-30T16:47:26.086Z,62.70
2022-10-30T16:49:56.701Z,81.88
2022-10-30T16:52:27.533Z,58.03
2022-10-30T16:55:05.548Z,60.30
2022-10-30T16:57:34.690Z,85.90
2022-10-30T17:00:03.433Z,53.00
2022-10-30T17:02:34.285Z,60.55
2022-10-30T17:05:10.193Z,63.05
2022-10-30T17:07:39.208Z,33.35
2022-10-30T17:10:22.566Z,29.60
2022-10-30T17:12:51.004Z,34.28
2022-10-30T17:15:23.658Z,37.58
2022-10-30T17:18:10.521Z,37.72
2022-10-30T17:20:40.457Z,30.60
2022-10-30T17:23:15.281Z,36.72
2022-10-30T17:25:43.865Z,34.65
2022-10-30T17:28:26.945Z,29.75
2022-10-30T17:30:55.697Z,25.65
2022-10-30T17:33:29.040Z,28.73
2022-10-30T17:35:58.873Z,26.92
2022-10-30T17:38:27.366Z,33.47
2022-10-30T17:40:55.830Z,28.50
2022-10-30T17:43:26.687Z,30.75
2022-10-30T17:45:55.444Z,24.42
2022-10-30T17:48:25.956Z,23.30
2022-10-30T17:50:54.424Z,22.40
2022-10-30T17:53:25.828Z,19.30
2022-10-30T17:55:57.735Z,22.92
2022-10-30T17:58:26.154Z,16.35
2022-10-30T18:00:54.653Z,15.10
2022-10-30T18:03:23.181Z,17.35
2022-10-30T18:05:52.212Z,15.38
2022-10-30T18:08:20.695Z,16.15
2022-10-30T18:10:50.501Z,17.25
2022-10-30T18:13:19.939Z,19.02
2022-10-30T18:15:53.722Z,17.08
2022-10-30T18:18:22.282Z,23.48
2022-10-30T18:20:50.826Z,19.23
2022-10-30T18:23:46.777Z,23.90
2022-10-30T18:26:14.881Z,20.98
2022-10-30T18:28:43.648Z,17.63
2022-10-30T18:31:13.068Z,15.85
2022-10-30T18:33:41.591Z,17.83
2022-10-30T18:36:12.834Z,25.23
2022-10-30T18:38:41.340Z,23.15
2022-10-30T18:41:15.295Z,21.50
2022-10-30T18:43:46.779Z,18.30
2022-10-30T18:46:16.623Z,25.13
2022-10-30T18:48:45.366Z,24.02
2022-10-30T18:51:16.921Z,20.40
2022-10-30T18:53:51.311Z,37.05
2022-10-30T18:56:21.919Z,42.40
2022-10-30T18:58:53.573Z,33.30
2022-10-30T19:01:25.550Z,78.93
2022-10-30T19:03:54.157Z,30.38
2022-10-30T19:06:23.446Z,27.05
2022-10-30T19:08:52.309Z,19.08
2022-10-30T19:11:25.073Z,26.08
2022-10-30T19:13:54.441Z,25.73
2022-10-30T19:16:24.399Z,24.98
2022-10-30T19:18:52.986Z,20.35
2022-10-30T19:21:22.248Z,18.58
2022-10-30T19:23:51.066Z,19.55
2022-10-30T19:26:19.673Z,21.30
2022-10-30T19:28:49.479Z,18.98
2022-10-30T19:31:18.878Z,28.77
2022-10-30T19:33:51.444Z,22.08
2022-10-30T19:36:27.001Z,22.25
2022-10-30T19:38:55.850Z,21.67
2022-10-30T19:41:25.289Z,22.20
2022-10-30T19:43:55.389Z,20.45
2022-10-30T19:46:23.920Z,23.13
2022-10-30T19:48:57.752Z,24.05
2022-10-30T19:51:26.891Z,19.88
2022-10-30T19:53:55.371Z,22.88
2022-10-30T19:56:23.956Z,20.30
2022-10-30T19:58:52.429Z,25.60
2022-10-30T20:01:22.411Z,20.17
2022-10-30T20:03:50.993Z,19.38
2022-10-30T20:06:21.314Z,18.05
2022-10-30T20:08:49.832Z,18.08
2022-10-30T20:11:18.339Z,18.10
2022-10-30T20:13:49.417Z,17.70
2022-10-30T20:16:21.944Z,20.77
2022-10-30T20:18:50.760Z,19.48
2022-10-30T20:21:20.943Z,16.17
2022-10-30T20:23:50.875Z,17.48
2022-10-30T20:26:24.848Z,19.50
2022-10-30T20:28:53.387Z,16.40
2022-10-30T20:31:23.192Z,18.35
2022-10-30T20:33:51.670Z,19.02
2022-10-30T20:36:20.082Z,22.75
2022-10-30T20:38:48.418Z,15.63
2022-10-30T20:41:21.067Z,15.82
2022-10-30T20:43:50.069Z,18.02
2022-10-30T20:46:18.881Z,16.17
2022-10-30T20:48:48.551Z,17.63
2022-10-30T20:51:16.931Z,17.88
2022-10-30T20:53:45.300Z,16.83
2022-10-30T20:56:13.623Z,17.33
2022-10-30T20:58:41.974Z,18.83
2022-10-30T21:01:10.852Z,17.52
2022-10-30T21:03:39.614Z,19.35
2022-10-30T21:06:09.863Z,18.27
2022-10-30T21:08:38.713Z,23.00
2022-10-30T21:11:07.976Z,22.90
2022-10-30T21:13:36.695Z,23.85
2022-10-30T21:16:06.613Z,17.83
2022-10-30T21:18:34.972Z,21.63
2022-10-30T21:21:03.815Z,17.90
2022-10-30T21:23:33.731Z,19.80
2022-10-30T21:26:02.252Z,21.98
2022-10-30T21:28:30.552Z,21.10
2022-10-30T21:31:01.797Z,21.75
2022-10-30T21:33:31.512Z,17.95
2022-10-30T21:36:09.168Z,18.92
2022-10-30T21:38:43.083Z,19.25
2022-10-30T21:41:12.144Z,18.52
2022-10-30T21:43:40.933Z,15.73
2022-10-30T21:46:09.628Z,16.95
2022-10-30T21:48:37.938Z,18.27
2022-10-30T21:51:07.083Z,15.48
2022-10-30T21:53:35.396Z,18.90
2022-10-30T21:56:09.432Z,18.95
2022-10-30T21:58:37.859Z,17.20
2022-10-30T22:01:06.936Z,19.98
2022-10-30T22:03:35.361Z,23.15
2022-10-30T22:06:07.206Z,17.73
2022-10-30T22:08:35.536Z,18.35
2022-10-30T22:11:04.298Z,19.48
2022-10-30T22:13:33.956Z,16.02
2022-10-30T22:16:02.711Z,14.45
2022-10-30T22:18:31.101Z,19.65
2022-10-30T22:21:03.651Z,15.88
2022-10-30T22:23:32.047Z,14.65
2022-10-30T22:26:01.015Z,19.67
2022-10-30T22:28:29.843Z,19.80
2022-10-30T22:31:03.935Z,18.05
2022-10-30T22:33:32.663Z,18.30
2022-10-30T22:36:04.697Z,22.80
2022-10-30T22:38:33.013Z,20.23
2022-10-30T22:41:11.384Z,16.95
2022-10-30T22:43:39.764Z,21.38
2022-10-30T22:46:10.442Z,15.02
2022-10-30T22:48:39.029Z,17.52
2022-10-30T22:51:13.343Z,19.00
2022-10-30T22:53:45.148Z,19.83
2022-10-30T22:56:14.527Z,18.10
2022-10-30T22:58:43.005Z,20.55
2022-10-30T23:01:13.502Z,18.67
2022-10-30T23:03:42.172Z,18.60
2022-10-30T23:06:11.101Z,13.10
2022-10-30T23:08:39.447Z,15.93
2022-10-30T23:11:08.066Z,15.65
2022-10-30T23:13:37.035Z,20.42
2022-10-30T23:16:06.492Z,15.15
2022-10-30T23:18:36.476Z,15.75
2022-10-30T23:21:05.568Z,17.38
2022-10-30T23:23:36.385Z,20.60
2022-10-30T23:26:05.460Z,14.52
2022-10-30T23:28:33.806Z,18.10
2022-10-30T23:31:02.115Z,20.13
2022-10-30T23:33:30.451Z,16.55
2022-10-30T23:36:03.805Z,15.32
2022-10-30T23:38:32.287Z,17.50
2022-10-30T23:41:00.612Z,17.55
2022-10-30T23:43:28.935Z,17.30
2022-10-30T23:45:57.257Z,17.55
2022-10-30T23:48:25.584Z,14.10
2022-10-30T23:50:53.887Z,18.27
2022-10-30T23:53:23.748Z,14.80
2022-10-30T23:55:52.427Z,18.35
2022-10-30T23:58:20.856Z,22.27
